Time;durP1;ratioP1;P1;durP2;ratioP2;P2;SDS_P1;SDS_P2;PMS_P1;PMS_P2;Temp;Humidity;BMP_temperature;BMP_pressure;BME280_temperature;BME280_humidity;BME280_pressure;Samples;Min_cycle;Max_cycle;Signal;HPM_P1;HPM_P2
2021/01/10 00:01:22;;;;;;;23.53;14.53;;;-2.50;99.90;;;;;;5052258;28;20233;-62
2021/01/10 00:03:48;;;;;;;22.53;15.73;;;-2.40;99.90;;;;;;5051667;28;20666;-62
2021/01/10 00:06:14;;;;;;;26.43;17.03;;;-2.40;99.90;;;;;;5051563;28;20696;-63
2021/01/10 00:08:41;;;;;;;26.20;15.77;;;-2.30;99.90;;;;;;5051586;28;20596;-62
2021/01/10 00:11:08;;;;;;;24.90;15.80;;;-2.30;99.90;;;;;;5052061;28;20662;-62
2021/01/10 00:13:34;;;;;;;21.03;14.00;;;-2.30;99.90;;;;;;5051683;28;20205;-63
2021/01/10 00:16:00;;;;;;;22.87;14.93;;;-2.20;99.90;;;;;;5051792;28;20210;-63
2021/01/10 00:18:26;;;;;;;24.33;14.67;;;-2.30;99.90;;;;;;5051549;28;20233;-62
2021/01/10 00:20:52;;;;;;;23.73;14.57;;;-2.30;99.90;;;;;;5051817;28;20259;-62
2021/01/10 00:23:18;;;;;;;21.70;14.67;;;-2.40;99.90;;;;;;5051926;28;20213;-62
2021/01/10 00:25:45;;;;;;;23.37;13.77;;;-2.40;99.90;;;;;;5051583;28;20215;-62
2021/01/10 00:28:12;;;;;;;24.20;14.60;;;-2.40;99.90;;;;;;5051493;28;20222;-62
2021/01/10 00:30:38;;;;;;;22.43;14.13;;;-2.30;99.90;;;;;;5051571;28;20224;-63
2021/01/10 00:33:04;;;;;;;23.07;13.77;;;-2.30;99.90;;;;;;5051783;28;20206;-62
2021/01/10 00:35:30;;;;;;;20.97;13.30;;;-2.30;99.90;;;;;;5051450;28;20212;-62
2021/01/10 00:37:58;;;;;;;22.03;13.50;;;-2.30;99.90;;;;;;5051391;28;20206;-62
2021/01/10 00:40:25;;;;;;;21.20;13.70;;;-2.20;99.90;;;;;;5051233;28;20213;-61
2021/01/10 00:42:53;;;;;;;20.30;13.80;;;-2.20;99.90;;;;;;5051267;28;20225;-63
2021/01/10 00:45:19;;;;;;;25.67;15.97;;;-2.20;99.90;;;;;;5051123;28;20255;-64
2021/01/10 00:47:46;;;;;;;22.20;15.10;;;-2.30;99.90;;;;;;5050906;28;20717;-62
2021/01/10 00:50:13;;;;;;;27.77;17.73;;;-2.30;99.90;;;;;;5051004;28;20569;-62
2021/01/10 00:52:39;;;;;;;22.40;15.13;;;-2.30;99.90;;;;;;5051188;28;20213;-61
2021/01/10 00:55:07;;;;;;;22.63;13.63;;;-2.30;99.90;;;;;;5050946;28;20205;-61
2021/01/10 00:57:34;;;;;;;21.33;14.00;;;-2.30;99.90;;;;;;5050758;28;20201;-61
2021/01/10 01:00:02;;;;;;;22.57;14.27;;;-2.40;99.90;;;;;;5050840;28;20222;-62
2021/01/10 01:02:28;;;;;;;21.53;13.70;;;-2.40;99.90;;;;;;5050956;28;20202;-61
2021/01/10 01:04:54;;;;;;;24.13;14.47;;;-2.60;99.90;;;;;;5050660;28;20204;-62
2021/01/10 01:07:20;;;;;;;22.93;14.03;;;-2.70;99.90;;;;;;5051040;28;20205;-62
2021/01/10 01:09:46;;;;;;;27.70;15.57;;;-2.80;99.90;;;;;;5050523;28;20225;-62
2021/01/10 01:12:13;;;;;;;27.20;15.60;;;-2.80;99.90;;;;;;5050934;28;20754;-62
2021/01/10 01:14:39;;;;;;;24.97;14.83;;;-2.80;99.90;;;;;;5050906;28;20206;-62
2021/01/10 01:17:07;;;;;;;23.90;14.60;;;-2.80;99.90;;;;;;5051287;28;20309;-62
2021/01/10 01:19:34;;;;;;;23.27;13.30;;;-2.90;99.90;;;;;;5050022;28;20229;-61
2021/01/10 01:22:00;;;;;;;20.97;13.23;;;-2.90;99.90;;;;;;5051200;28;20277;-62
2021/01/10 01:24:27;;;;;;;22.17;13.50;;;-2.90;99.90;;;;;;5050689;28;20290;-62
2021/01/10 01:26:53;;;;;;;18.70;12.40;;;-2.90;99.90;;;;;;5050741;28;20205;-61
2021/01/10 01:29:19;;;;;;;26.17;13.67;;;-3.00;99.90;;;;;;5050648;28;20232;-62
2021/01/10 01:31:45;;;;;;;22.80;14.00;;;-3.00;99.90;;;;;;5050816;28;20269;-62
2021/01/10 01:34:12;;;;;;;22.03;12.60;;;-3.10;99.90;;;;;;5050319;28;20214;-61
2021/01/10 01:36:38;;;;;;;21.07;12.70;;;-3.10;99.90;;;;;;5050513;28;20209;-62
2021/01/10 01:39:05;;;;;;;20.00;12.67;;;-3.10;99.90;;;;;;5050160;28;20261;-62
2021/01/10 01:41:36;;;;;;;23.17;13.20;;;-3.10;99.90;;;;;;5050388;28;20603;-62
2021/01/10 01:44:03;;;;;;;19.93;12.83;;;-3.20;99.90;;;;;;5050375;28;20239;-62
2021/01/10 01:46:31;;;;;;;18.37;11.90;;;-3.20;99.90;;;;;;5050592;28;20271;-61
2021/01/10 01:48:58;;;;;;;18.23;12.00;;;-3.20;99.90;;;;;;5050041;28;20226;-61
2021/01/10 01:51:26;;;;;;;20.50;13.13;;;-3.10;99.90;;;;;;5050391;28;20288;-61
2021/01/10 01:53:52;;;;;;;19.97;12.73;;;-3.10;99.90;;;;;;5049909;28;20209;-62
2021/01/10 01:56:18;;;;;;;20.37;12.83;;;-3.10;99.90;;;;;;5050228;28;20688;-62
2021/01/10 01:58:56;;;;;;;26.03;13.60;;;-3.10;99.90;;;;;;5050040;28;20230;-62
2021/01/10 02:01:23;;;;;;;21.73;12.60;;;-3.20;99.90;;;;;;5050296;28;20209;-62
2021/01/10 02:03:49;;;;;;;19.40;11.27;;;-3.20;99.90;;;;;;5049869;28;20210;-61
2021/01/10 02:06:20;;;;;;;21.23;12.57;;;-3.20;99.90;;;;;;5050256;28;20608;-62
2021/01/10 02:08:49;;;;;;;19.53;11.93;;;-3.20;99.90;;;;;;5049906;28;20233;-61
2021/01/10 02:11:17;;;;;;;18.40;11.30;;;-3.20;99.90;;;;;;5050252;28;20229;-61
2021/01/10 02:13:46;;;;;;;17.03;11.10;;;-3.20;99.90;;;;;;5050311;28;20209;-62
2021/01/10 02:16:13;;;;;;;19.07;11.73;;;-3.30;99.90;;;;;;5050294;28;20274;-61
2021/01/10 02:18:41;;;;;;;19.13;11.73;;;-3.30;99.90;;;;;;5049858;28;20233;-62
2021/01/10 02:21:10;;;;;;;18.60;11.87;;;-3.30;99.90;;;;;;5049950;28;20591;-62
2021/01/10 02:23:40;;;;;;;18.60;11.97;;;-3.30;99.90;;;;;;5049843;28;20217;-62
2021/01/10 02:26:08;;;;;;;18.60;11.60;;;-3.30;99.90;;;;;;5050488;28;20217;-61
2021/01/10 02:28:35;;;;;;;17.03;10.93;;;-3.20;99.90;;;;;;5050068;28;20780;-62
2021/01/10 02:31:04;;;;;;;17.67;10.27;;;-3.30;99.90;;;;;;5053419;28;20233;-62
2021/01/10 02:33:37;;;;;;;18.27;10.63;;;-3.40;99.90;;;;;;5053344;28;20206;-62
2021/01/10 02:36:08;;;;;;;21.60;10.57;;;-3.40;99.90;;;;;;5053957;28;20263;-61
2021/01/10 02:38:43;;;;;;;15.33;10.47;;;-3.40;99.90;;;;;;5053482;28;20230;-61
2021/01/10 02:41:26;;;;;;;15.20;9.97;;;-3.40;99.90;;;;;;5053619;28;20201;-62
2021/01/10 02:44:02;;;;;;;18.17;11.90;;;-3.40;99.90;;;;;;5053653;28;20212;-61
2021/01/10 02:46:28;;;;;;;19.10;10.80;;;-3.40;99.90;;;;;;5053758;28;20263;-62
2021/01/10 02:48:55;;;;;;;19.07;11.53;;;-3.40;99.90;;;;;;5053065;28;20873;-62
2021/01/10 02:51:21;;;;;;;22.53;12.07;;;-3.50;99.90;;;;;;5053420;28;20259;-61
2021/01/10 02:53:48;;;;;;;20.70;12.07;;;-3.50;99.90;;;;;;5053049;28;20209;-61
2021/01/10 02:56:14;;;;;;;18.77;11.10;;;-3.60;99.90;;;;;;5053842;28;20201;-62
2021/01/10 02:58:43;;;;;;;15.57;10.27;;;-3.60;99.90;;;;;;5052788;28;20226;-61
2021/01/10 03:01:13;;;;;;;15.03;9.77;;;-3.60;99.90;;;;;;5053817;28;20256;-62
2021/01/10 03:03:40;;;;;;;16.23;10.13;;;-3.60;99.90;;;;;;5053007;28;20667;-61
2021/01/10 03:06:07;;;;;;;15.10;9.87;;;-3.80;99.90;;;;;;5052999;28;20692;-60
2021/01/10 03:08:34;;;;;;;16.73;9.97;;;-3.80;99.90;;;;;;5052826;28;20229;-60
2021/01/10 03:11:01;;;;;;;15.00;9.73;;;-3.80;99.90;;;;;;5052814;28;20237;-60
2021/01/10 03:13:27;;;;;;;14.67;9.30;;;-3.80;99.90;;;;;;5053011;28;20229;-61
2021/01/10 03:15:54;;;;;;;17.20;10.60;;;-3.80;99.90;;;;;;5053189;28;20206;-60
2021/01/10 03:18:23;;;;;;;14.37;9.30;;;-3.90;99.90;;;;;;5078421;22;20225;-62
2021/01/10 03:20:49;;;;;;;13.77;8.57;;;-3.80;99.90;;;;;;5073960;28;20208;-62
2021/01/10 03:23:16;;;;;;;16.27;9.90;;;-3.70;99.90;;;;;;5074079;28;20217;-62
2021/01/10 03:25:43;;;;;;;16.33;9.80;;;-3.60;99.90;;;;;;5073734;28;20216;-62
2021/01/10 03:28:09;;;;;;;12.90;9.20;;;-3.40;99.90;;;;;;5073395;28;20208;-61
2021/01/10 03:30:35;;;;;;;15.07;9.33;;;-3.20;99.90;;;;;;5073640;28;20235;-62
2021/01/10 03:33:03;;;;;;;15.73;9.23;;;-3.00;99.90;;;;;;5073560;28;20245;-62
2021/01/10 03:35:30;;;;;;;15.17;9.23;;;-2.90;99.90;;;;;;5073139;28;20209;-62
2021/01/10 03:37:56;;;;;;;15.13;9.60;;;-2.80;99.90;;;;;;5073196;28;20224;-62
2021/01/10 03:40:23;;;;;;;15.23;9.43;;;-2.70;99.90;;;;;;5073253;28;20220;-62
2021/01/10 03:42:49;;;;;;;12.83;9.23;;;-2.60;99.90;;;;;;5073004;28;20209;-62
2021/01/10 03:45:17;;;;;;;14.13;9.40;;;-2.50;99.90;;;;;;5073207;28;20209;-61
2021/01/10 03:47:43;;;;;;;13.77;9.00;;;-2.30;99.90;;;;;;5073024;28;20220;-62
2021/01/10 03:50:11;;;;;;;15.83;9.50;;;-2.20;99.90;;;;;;5072974;28;20309;-62
2021/01/10 03:52:37;;;;;;;14.37;9.50;;;-2.10;99.90;;;;;;5072756;28;20205;-62
2021/01/10 03:55:04;;;;;;;14.80;9.27;;;-2.00;99.90;;;;;;5072852;28;20209;-61
2021/01/10 03:57:30;;;;;;;13.30;8.63;;;-1.80;99.90;;;;;;5072899;28;20295;-62
2021/01/10 03:59:57;;;;;;;12.43;8.30;;;-1.70;99.90;;;;;;5072431;28;20237;-62
2021/01/10 04:02:23;;;;;;;14.20;8.67;;;-1.50;99.90;;;;;;5072784;28;20201;-62
2021/01/10 04:04:49;;;;;;;13.00;8.30;;;-1.50;99.90;;;;;;5072608;28;20580;-62
2021/01/10 04:07:16;;;;;;;13.23;8.63;;;-1.60;99.90;;;;;;5072811;28;20669;-62
2021/01/10 04:09:42;;;;;;;14.87;8.87;;;-1.60;99.90;;;;;;5072435;28;20235;-61
2021/01/10 04:12:09;;;;;;;13.37;8.80;;;-1.50;99.90;;;;;;5073108;28;20213;-61
2021/01/10 04:14:35;;;;;;;12.60;8.70;;;-1.40;99.90;;;;;;5072693;28;20579;-62
2021/01/10 04:17:02;;;;;;;12.20;8.30;;;-1.30;99.90;;;;;;5072796;28;20257;-62
2021/01/10 04:19:28;;;;;;;13.70;8.53;;;-1.10;99.90;;;;;;5072291;28;20584;-63
2021/01/10 04:21:54;;;;;;;12.20;8.70;;;-1.10;99.90;;;;;;5072282;28;20204;-63
2021/01/10 04:24:21;;;;;;;13.33;9.13;;;-0.90;99.90;;;;;;5073002;28;20213;-62
2021/01/10 04:26:49;;;;;;;14.13;8.90;;;-0.80;99.90;;;;;;5073473;28;20540;-62
2021/01/10 04:29:17;;;;;;;14.10;9.10;;;-0.80;99.90;;;;;;5072442;28;20229;-61
2021/01/10 04:31:43;;;;;;;13.60;9.60;;;-0.70;99.90;;;;;;5072555;28;20232;-62
2021/01/10 04:34:09;;;;;;;13.13;8.83;;;-0.70;99.90;;;;;;5072180;28;20208;-62
2021/01/10 04:36:35;;;;;;;13.37;8.43;;;-0.60;99.90;;;;;;5072081;28;20208;-62
2021/01/10 04:39:02;;;;;;;12.20;8.40;;;-0.50;99.90;;;;;;5071667;28;20724;-62
2021/01/10 04:41:30;;;;;;;12.17;8.73;;;-0.50;99.90;;;;;;5072532;28;20204;-62
2021/01/10 04:43:56;;;;;;;13.70;9.10;;;-0.40;99.90;;;;;;5071567;28;20209;-62
2021/01/10 04:46:23;;;;;;;11.93;8.60;;;-0.20;99.90;;;;;;5071817;28;20209;-62
2021/01/10 04:48:49;;;;;;;13.57;9.37;;;-0.20;99.90;;;;;;5071437;28;20224;-62
2021/01/10 04:51:16;;;;;;;13.10;8.30;;;-0.20;99.90;;;;;;5071373;28;20315;-62
2021/01/10 04:53:46;;;;;;;12.43;8.80;;;-0.20;99.90;;;;;;5071199;28;20251;-62
2021/01/10 04:56:13;;;;;;;11.17;8.33;;;-0.10;99.90;;;;;;5071384;28;20249;-63
2021/01/10 04:58:43;;;;;;;12.47;9.03;;;0.00;99.90;;;;;;5071074;28;20225;-62
2021/01/10 05:01:16;;;;;;;12.83;8.53;;;0.10;99.90;;;;;;5071545;28;20216;-62
2021/01/10 05:03:43;;;;;;;13.97;8.90;;;0.10;99.90;;;;;;5071198;28;20209;-63
2021/01/10 05:06:10;;;;;;;13.70;8.47;;;0.10;99.90;;;;;;5071512;28;20208;-62
2021/01/10 05:08:36;;;;;;;13.27;8.83;;;0.10;99.90;;;;;;5071584;28;20225;-62
2021/01/10 05:11:03;;;;;;;13.23;9.07;;;0.20;99.90;;;;;;5071676;28;20229;-63
2021/01/10 05:13:29;;;;;;;13.53;9.03;;;0.30;99.90;;;;;;5071527;28;20216;-62
2021/01/10 05:15:57;;;;;;;12.03;8.47;;;0.30;99.90;;;;;;5071749;28;20676;-63
2021/01/10 05:18:24;;;;;;;12.53;8.73;;;0.40;99.90;;;;;;5071535;28;20809;-62
2021/01/10 05:20:54;;;;;;;12.87;8.87;;;0.40;99.90;;;;;;5071917;28;20212;-63
2021/01/10 05:23:24;;;;;;;14.17;9.47;;;0.40;99.90;;;;;;5071666;28;20291;-62
2021/01/10 05:26:04;;;;;;;11.87;8.33;;;0.50;99.90;;;;;;5071302;28;20292;-62
2021/01/10 05:28:31;;;;;;;12.23;9.03;;;0.50;99.90;;;;;;5070700;28;20775;-62
2021/01/10 05:30:59;;;;;;;15.10;9.90;;;0.60;99.90;;;;;;5071270;28;20318;-63
2021/01/10 05:33:26;;;;;;;14.37;9.30;;;0.60;99.90;;;;;;5070851;28;20278;-62
2021/01/10 05:35:54;;;;;;;12.17;8.73;;;0.60;99.90;;;;;;5071319;28;20205;-65
2021/01/10 05:38:26;;;;;;;12.63;9.13;;;0.60;99.90;;;;;;5071151;28;20665;-61
2021/01/10 05:40:53;;;;;;;14.37;9.87;;;0.60;99.90;;;;;;5071219;28;20225;-62
2021/01/10 05:43:20;;;;;;;13.17;9.13;;;0.50;99.90;;;;;;5071187;28;20216;-63
2021/01/10 05:45:46;;;;;;;12.53;8.37;;;0.60;99.90;;;;;;5070838;28;20208;-63
2021/01/10 05:48:15;;;;;;;11.57;9.23;;;0.60;99.90;;;;;;5070776;28;20209;-62
2021/01/10 05:50:43;;;;;;;12.93;8.63;;;0.60;99.90;;;;;;5071063;28;20232;-63
2021/01/10 05:53:20;;;;;;;13.40;9.43;;;0.60;99.90;;;;;;5071319;28;20216;-63
2021/01/10 05:55:57;;;;;;;12.70;9.40;;;0.60;99.90;;;;;;5070617;28;20188;-63
2021/01/10 05:58:26;;;;;;;14.13;9.40;;;0.60;99.90;;;;;;5071223;28;20231;-63
2021/01/10 06:00:52;;;;;;;12.97;9.27;;;0.60;99.90;;;;;;5071854;28;20201;-63
2021/01/10 06:03:22;;;;;;;14.10;10.03;;;0.70;99.90;;;;;;5071319;28;20687;-63
2021/01/10 06:05:58;;;;;;;12.93;9.10;;;0.80;99.90;;;;;;5074911;28;20209;-63
2021/01/10 06:08:33;;;;;;;15.30;10.43;;;0.90;99.90;;;;;;5074990;28;20228;-62
2021/01/10 06:11:19;;;;;;;13.83;9.23;;;0.90;99.90;;;;;;5074983;28;20228;-63
2021/01/10 06:13:53;;;;;;;12.77;9.67;;;1.00;99.90;;;;;;5075736;28;20627;-63
2021/01/10 06:16:21;;;;;;;14.30;9.43;;;1.00;99.90;;;;;;5074955;28;20254;-62
2021/01/10 06:18:52;;;;;;;14.90;9.43;;;1.00;99.90;;;;;;5074793;28;20240;-63
2021/01/10 06:21:20;;;;;;;18.57;12.27;;;1.00;99.90;;;;;;5074996;28;20209;-64
2021/01/10 06:23:49;;;;;;;18.93;12.03;;;0.90;99.90;;;;;;5074474;28;20208;-63
2021/01/10 06:26:18;;;;;;;13.53;10.03;;;0.90;99.90;;;;;;5074309;28;20206;-63
2021/01/10 06:28:59;;;;;;;19.67;13.97;;;1.00;99.90;;;;;;5073909;28;20229;-63
2021/01/10 06:31:30;;;;;;;12.40;9.47;;;1.10;99.90;;;;;;5074140;28;20695;-64
2021/01/10 06:34:03;;;;;;;14.20;10.47;;;1.20;99.90;;;;;;5073964;28;20216;-63
2021/01/10 06:36:32;;;;;;;14.77;9.73;;;1.20;99.90;;;;;;5073868;28;20209;-63
2021/01/10 06:39:00;;;;;;;14.07;10.20;;;1.20;99.90;;;;;;5073495;28;20225;-63
2021/01/10 06:42:03;;;;;;;13.27;9.83;;;1.30;99.90;;;;;;5073763;28;20208;-63
2021/01/10 06:44:34;;;;;;;15.30;9.90;;;1.30;99.90;;;;;;5073838;28;20200;-63
2021/01/10 06:47:00;;;;;;;20.63;12.30;;;1.30;99.90;;;;;;5073893;28;20236;-63
2021/01/10 06:49:27;;;;;;;15.10;9.87;;;1.30;99.90;;;;;;5073255;28;20648;-64
2021/01/10 06:51:56;;;;;;;15.87;10.70;;;1.30;99.90;;;;;;5073780;28;20487;-64
2021/01/10 06:54:23;;;;;;;15.67;10.63;;;1.20;99.90;;;;;;5074006;28;20263;-63
2021/01/10 06:56:50;;;;;;;11.23;8.30;;;1.30;99.90;;;;;;5073797;28;20215;-63
2021/01/10 06:59:17;;;;;;;12.67;9.30;;;1.20;99.90;;;;;;5073472;28;20233;-62
2021/01/10 07:01:58;;;;;;;12.77;9.27;;;1.10;99.90;;;;;;5074012;28;20201;-63
2021/01/10 07:04:45;;;;;;;14.47;9.80;;;1.10;99.90;;;;;;5073790;28;20224;-63
2021/01/10 07:07:34;;;;;;;15.57;10.60;;;1.10;99.90;;;;;;5073973;28;20208;-63
2021/01/10 07:10:00;;;;;;;13.27;9.67;;;0.90;99.90;;;;;;5073393;28;20681;-62
2021/01/10 07:12:27;;;;;;;15.00;9.80;;;0.90;99.90;;;;;;5073700;28;20322;-63
2021/01/10 07:14:53;;;;;;;14.60;10.03;;;0.90;99.90;;;;;;5072933;28;20208;-62
2021/01/10 07:17:20;;;;;;;13.43;9.87;;;0.80;99.90;;;;;;5072102;28;20212;-63
2021/01/10 07:19:50;;;;;;;12.97;9.93;;;0.80;99.90;;;;;;5072481;28;20286;-63
2021/01/10 07:22:27;;;;;;;13.30;9.77;;;0.70;99.90;;;;;;5073397;28;20208;-62
2021/01/10 07:24:54;;;;;;;18.07;11.67;;;0.70;99.90;;;;;;5073157;28;20207;-63
2021/01/10 07:27:31;;;;;;;13.97;10.07;;;0.70;99.90;;;;;;5073072;28;20211;-62
2021/01/10 07:29:58;;;;;;;16.53;11.10;;;0.70;99.90;;;;;;5072934;28;20228;-63
2021/01/10 07:32:34;;;;;;;15.90;11.17;;;0.70;99.90;;;;;;5072880;28;20207;-63
2021/01/10 07:35:05;;;;;;;14.37;10.43;;;0.80;99.90;;;;;;5072440;28;20208;-63
2021/01/10 07:37:33;;;;;;;14.20;10.40;;;0.80;99.90;;;;;;5073447;28;20267;-63
2021/01/10 07:40:01;;;;;;;13.37;10.63;;;0.90;99.90;;;;;;5072654;28;20220;-63
2021/01/10 07:42:29;;;;;;;14.73;9.80;;;0.90;99.90;;;;;;5073052;28;20216;-63
2021/01/10 07:44:57;;;;;;;14.10;9.97;;;0.90;99.90;;;;;;5072597;28;20588;-63
2021/01/10 07:47:43;;;;;;;13.57;9.57;;;0.90;99.90;;;;;;5072784;28;20216;-63
2021/01/10 07:50:20;;;;;;;13.10;9.40;;;0.80;99.90;;;;;;5072685;28;20258;-63
2021/01/10 07:52:56;;;;;;;14.00;9.20;;;0.80;99.90;;;;;;5072797;28;20205;-63
2021/01/10 07:55:30;;;;;;;12.83;9.13;;;0.80;99.90;;;;;;5072070;28;20623;-63
2021/01/10 07:58:17;;;;;;;14.97;10.23;;;0.80;99.90;;;;;;5072252;28;20216;-63
2021/01/10 08:00:53;;;;;;;13.43;9.90;;;0.80;99.90;;;;;;5072707;28;20579;-63
2021/01/10 08:03:23;;;;;;;13.33;9.80;;;0.80;99.90;;;;;;5072582;28;20300;-63
2021/01/10 08:06:02;;;;;;;15.90;10.77;;;0.80;99.90;;;;;;5072326;28;20291;-63
2021/01/10 08:08:43;;;;;;;15.80;11.83;;;0.80;99.90;;;;;;5072009;28;20224;-63
2021/01/10 08:11:10;;;;;;;17.00;12.43;;;0.80;99.90;;;;;;5072244;28;20644;-63
2021/01/10 08:13:37;;;;;;;17.17;11.90;;;0.80;99.90;;;;;;5071935;28;20216;-63
2021/01/10 08:16:06;;;;;;;15.07;10.20;;;0.90;99.90;;;;;;5072317;28;20204;-63
2021/01/10 08:18:35;;;;;;;14.50;9.97;;;0.90;99.90;;;;;;5071957;28;20248;-63
2021/01/10 08:21:04;;;;;;;14.13;9.73;;;0.90;99.90;;;;;;5072192;28;20212;-63
2021/01/10 08:23:31;;;;;;;12.43;8.63;;;0.90;99.90;;;;;;5071633;28;20216;-64
2021/01/10 08:26:02;;;;;;;13.90;9.20;;;1.10;99.90;;;;;;5072302;28;20277;-63
2021/01/10 08:28:32;;;;;;;13.13;9.63;;;1.20;99.90;;;;;;5071449;28;20229;-63
2021/01/10 08:31:01;;;;;;;12.33;9.20;;;1.20;99.90;;;;;;5071970;28;20265;-64
2021/01/10 08:33:28;;;;;;;11.20;8.97;;;1.20;99.90;;;;;;5072218;28;20665;-63
2021/01/10 08:36:07;;;;;;;12.70;9.60;;;1.10;99.90;;;;;;5072162;28;20201;-64
2021/01/10 08:38:34;;;;;;;15.37;10.40;;;1.10;99.90;;;;;;5071291;28;20708;-64
2021/01/10 08:41:00;;;;;;;16.47;11.23;;;1.10;99.90;;;;;;5071775;28;20205;-64
2021/01/10 08:43:26;;;;;;;16.43;11.33;;;1.20;99.90;;;;;;5071385;28;20205;-64
2021/01/10 08:45:52;;;;;;;15.47;10.83;;;1.30;99.90;;;;;;5071881;28;20201;-64
2021/01/10 08:48:18;;;;;;;16.37;11.83;;;1.40;99.90;;;;;;5071412;28;20688;-64
2021/01/10 08:50:45;;;;;;;29.00;18.27;;;1.40;99.90;;;;;;5071418;28;20228;-64
2021/01/10 08:53:11;;;;;;;18.93;12.90;;;1.50;99.90;;;;;;5071779;28;20613;-64
2021/01/10 08:55:40;;;;;;;15.17;11.20;;;1.60;99.90;;;;;;5071508;28;20665;-64
2021/01/10 08:58:09;;;;;;;14.33;9.90;;;1.70;99.90;;;;;;5071136;28;20565;-61
2021/01/10 09:00:39;;;;;;;13.33;10.23;;;1.60;99.90;;;;;;5071307;28;20208;-62
2021/01/10 09:03:15;;;;;;;14.07;10.33;;;1.60;99.90;;;;;;5071407;28;20204;-62
2021/01/10 09:05:44;;;;;;;15.70;10.53;;;1.50;99.90;;;;;;5071258;28;20206;-62
2021/01/10 09:08:25;;;;;;;17.67;11.43;;;1.30;99.90;;;;;;5070714;28;20688;-63
2021/01/10 09:11:03;;;;;;;15.07;10.83;;;1.20;99.90;;;;;;5071895;28;20221;-62
2021/01/10 09:13:32;;;;;;;15.50;11.77;;;1.10;99.90;;;;;;5071022;28;20212;-62
2021/01/10 09:16:01;;;;;;;14.97;11.10;;;1.10;99.90;;;;;;5071484;28;20212;-62
2021/01/10 09:18:30;;;;;;;13.93;10.10;;;1.00;99.90;;;;;;5096182;22;20242;-62
2021/01/10 09:21:01;;;;;;;13.23;9.57;;;1.00;99.90;;;;;;5069964;28;20229;-62
2021/01/10 09:23:28;;;;;;;16.00;11.60;;;1.00;99.90;;;;;;5070516;28;20208;-63
2021/01/10 09:25:55;;;;;;;14.90;10.10;;;1.10;99.90;;;;;;5070655;28;20212;-62
2021/01/10 09:28:22;;;;;;;14.90;10.60;;;1.20;99.90;;;;;;5070927;28;20221;-63
2021/01/10 09:30:52;;;;;;;12.00;8.90;;;1.30;99.90;;;;;;5070992;28;20235;-59
2021/01/10 09:33:23;;;;;;;13.10;9.40;;;1.40;99.90;;;;;;5049012;28;20587;-60
2021/01/10 09:35:50;;;;;;;13.60;9.27;;;1.50;99.90;;;;;;5050537;28;20217;-60
2021/01/10 09:38:19;;;;;;;16.00;10.23;;;1.60;99.90;;;;;;5050068;28;20556;-60
2021/01/10 09:41:12;;;;;;;14.63;10.33;;;1.70;99.90;;;;;;5069769;28;20264;-60
2021/01/10 09:43:39;;;;;;;14.07;10.30;;;1.90;99.90;;;;;;5053084;28;20205;-60
2021/01/10 09:46:21;;;;;;;11.33;8.70;;;2.10;99.90;;;;;;5070448;28;20262;-59
2021/01/10 09:48:52;;;;;;;12.13;8.97;;;2.20;99.90;;;;;;5057155;28;20229;-58
2021/01/10 09:51:18;;;;;;;13.43;10.20;;;2.30;99.90;;;;;;5070319;28;20232;-62
2021/01/10 09:53:47;;;;;;;12.07;9.43;;;2.40;99.90;;;;;;5070273;28;20291;-62
2021/01/10 09:56:15;;;;;;;12.07;8.97;;;2.40;99.90;;;;;;5070592;28;20295;-63
2021/01/10 09:58:41;;;;;;;12.93;9.73;;;2.40;99.90;;;;;;5069857;28;20228;-60
2021/01/10 10:01:09;;;;;;;14.30;10.27;;;2.40;99.90;;;;;;5070535;28;20231;-59
2021/01/10 10:03:36;;;;;;;15.00;11.30;;;2.30;99.90;;;;;;5069755;28;20204;-64
2021/01/10 10:06:03;;;;;;;15.97;10.33;;;2.30;99.90;;;;;;5070595;28;20643;-63
2021/01/10 10:08:29;;;;;;;13.80;10.37;;;2.30;99.90;;;;;;5069904;28;20680;-63
2021/01/10 10:10:55;;;;;;;12.23;9.53;;;2.40;99.90;;;;;;5070007;28;20765;-63
2021/01/10 10:13:27;;;;;;;12.13;9.07;;;2.60;99.90;;;;;;5070197;28;20213;-62
2021/01/10 10:15:55;;;;;;;12.20;9.17;;;2.60;99.90;;;;;;5070133;28;20295;-63
2021/01/10 10:18:23;;;;;;;10.77;8.43;;;2.50;99.90;;;;;;5070208;28;20211;-62
2021/01/10 10:20:51;;;;;;;11.03;8.57;;;2.50;99.90;;;;;;5070234;28;20233;-63
2021/01/10 10:23:17;;;;;;;10.43;7.10;;;2.50;99.90;;;;;;5070398;28;20235;-63
2021/01/10 10:25:45;;;;;;;13.03;8.17;;;2.50;99.90;;;;;;5069952;28;20205;-61
2021/01/10 10:28:12;;;;;;;9.40;7.17;;;2.50;99.90;;;;;;5070306;28;20208;-60
2021/01/10 10:30:39;;;;;;;9.23;6.93;;;2.50;99.90;;;;;;5070355;28;20638;-64
2021/01/10 10:33:06;;;;;;;9.83;7.23;;;2.60;99.90;;;;;;5070767;28;20216;-60
2021/01/10 10:35:33;;;;;;;11.60;8.10;;;2.70;99.90;;;;;;5070008;28;20669;-59
2021/01/10 10:38:00;;;;;;;10.00;7.70;;;2.80;99.90;;;;;;5069851;28;20205;-59
2021/01/10 10:40:26;;;;;;;10.53;8.20;;;2.90;99.90;;;;;;5070152;28;20217;-62
2021/01/10 10:42:52;;;;;;;9.43;7.87;;;2.90;99.90;;;;;;5069975;28;20209;-62
2021/01/10 10:45:20;;;;;;;10.67;7.77;;;2.90;99.90;;;;;;5070254;28;20231;-60
2021/01/10 10:47:47;;;;;;;8.93;7.30;;;3.00;99.90;;;;;;5070365;28;20205;-62
2021/01/10 10:50:14;;;;;;;10.77;7.70;;;2.90;99.90;;;;;;5070715;28;20237;-59
2021/01/10 10:52:41;;;;;;;11.07;8.33;;;2.80;99.90;;;;;;5073722;28;20204;-60
2021/01/10 10:55:09;;;;;;;10.23;7.57;;;2.60;99.90;;;;;;5073504;28;20623;-59
2021/01/10 10:57:36;;;;;;;10.23;7.53;;;2.50;99.90;;;;;;5073270;28;20262;-62
2021/01/10 11:00:04;;;;;;;10.63;8.10;;;2.30;99.90;;;;;;5073258;28;20324;-59
2021/01/10 11:02:30;;;;;;;12.43;8.60;;;2.10;99.90;;;;;;5073888;28;20212;-60
2021/01/10 11:04:57;;;;;;;11.43;8.97;;;2.10;99.90;;;;;;5073088;28;20211;-60
2021/01/10 11:07:23;;;;;;;11.30;7.90;;;2.10;99.90;;;;;;5073191;28;20664;-62
2021/01/10 11:09:49;;;;;;;11.60;8.50;;;2.10;99.90;;;;;;5072882;28;20264;-63
2021/01/10 11:12:16;;;;;;;10.90;8.17;;;2.20;99.90;;;;;;5073011;28;20205;-62
2021/01/10 11:14:42;;;;;;;11.40;8.10;;;2.30;99.90;;;;;;5073157;28;20209;-61
2021/01/10 11:17:09;;;;;;;11.57;8.27;;;2.40;99.90;;;;;;5073253;28;20216;-60
2021/01/10 11:19:36;;;;;;;11.73;7.90;;;2.40;99.90;;;;;;5072891;28;20236;-59
2021/01/10 11:22:05;;;;;;;9.33;7.30;;;2.60;99.90;;;;;;5073292;28;20623;-63
2021/01/10 11:24:31;;;;;;;9.77;6.77;;;2.70;99.90;;;;;;5072741;28;20209;-60
2021/01/10 11:26:58;;;;;;;8.80;6.57;;;2.70;99.90;;;;;;5072934;28;20343;-60
2021/01/10 11:29:25;;;;;;;9.00;7.10;;;2.60;99.90;;;;;;5072870;28;20240;-62
2021/01/10 11:31:52;;;;;;;10.40;7.93;;;2.70;99.90;;;;;;5072767;28;20307;-60
2021/01/10 11:34:19;;;;;;;9.13;6.77;;;2.80;99.90;;;;;;5053840;28;20214;-60
2021/01/10 11:36:46;;;;;;;9.73;6.77;;;2.80;99.90;;;;;;5052743;28;20206;-60
2021/01/10 11:39:15;;;;;;;7.83;6.27;;;2.80;99.90;;;;;;5052375;28;20225;-63
2021/01/10 11:41:45;;;;;;;9.20;7.03;;;2.90;99.90;;;;;;5054597;28;20213;-63
2021/01/10 11:44:12;;;;;;;7.97;6.17;;;3.10;99.90;;;;;;5056130;28;20233;-61
2021/01/10 11:46:41;;;;;;;10.43;7.27;;;3.30;99.90;;;;;;5052513;28;20673;-61
2021/01/10 11:49:07;;;;;;;7.53;6.33;;;3.40;99.90;;;;;;5052120;28;20231;-61
2021/01/10 11:51:33;;;;;;;10.87;7.80;;;3.30;99.90;;;;;;5052328;28;20221;-61
2021/01/10 11:53:59;;;;;;;7.07;5.67;;;3.30;99.90;;;;;;5051839;28;20591;-62
2021/01/10 11:56:26;;;;;;;8.00;6.53;;;3.20;99.90;;;;;;5052439;28;20214;-60
2021/01/10 11:58:52;;;;;;;8.27;6.33;;;3.20;99.90;;;;;;5052025;28;20225;-60
2021/01/10 12:01:19;;;;;;;8.77;7.07;;;3.30;99.90;;;;;;5052210;28;20208;-61
2021/01/10 12:03:47;;;;;;;8.47;6.43;;;3.50;99.90;;;;;;5051690;28;20213;-63
2021/01/10 12:06:18;;;;;;;30.10;16.17;;;3.70;99.90;;;;;;5052725;28;20499;-63
2021/01/10 12:08:45;;;;;;;11.73;8.10;;;3.90;99.90;;;;;;5052880;28;20320;-64
2021/01/10 12:11:13;;;;;;;6.97;5.80;;;4.10;99.90;;;;;;5052502;28;20225;-64
2021/01/10 12:13:40;;;;;;;7.50;6.40;;;4.10;99.90;;;;;;5052007;28;20205;-63
2021/01/10 12:16:06;;;;;;;7.60;5.90;;;4.20;99.90;;;;;;5052837;28;20247;-61
2021/01/10 12:18:32;;;;;;;8.37;6.40;;;4.30;99.90;;;;;;5052561;28;20587;-62
2021/01/10 12:20:59;;;;;;;7.87;6.23;;;4.20;99.90;;;;;;5052375;28;20205;-62
2021/01/10 12:23:25;;;;;;;8.53;6.53;;;4.20;99.90;;;;;;5051794;28;20206;-62
2021/01/10 12:25:51;;;;;;;9.07;6.27;;;4.30;99.90;;;;;;5051886;28;20270;-63
2021/01/10 12:28:18;;;;;;;8.57;6.60;;;4.40;99.90;;;;;;5051482;28;20210;-63
2021/01/10 12:30:45;;;;;;;8.90;6.57;;;4.50;99.90;;;;;;5051783;28;20244;-63
2021/01/10 12:33:11;;;;;;;8.93;6.50;;;4.80;99.90;;;;;;5052284;28;20209;-63
2021/01/10 12:35:37;;;;;;;9.00;6.40;;;5.10;99.90;;;;;;5051486;28;20239;-64
2021/01/10 12:38:03;;;;;;;9.70;7.53;;;5.20;99.90;;;;;;5052473;28;20313;-64
2021/01/10 12:40:30;;;;;;;10.40;9.30;;;5.00;99.90;;;;;;5051624;28;20225;-61
2021/01/10 12:42:56;;;;;;;7.30;6.23;;;4.80;99.90;;;;;;5054143;28;20636;-61
2021/01/10 12:45:22;;;;;;;7.63;6.63;;;4.60;99.90;;;;;;5071217;28;20216;-62
2021/01/10 12:47:49;;;;;;;8.23;6.00;;;4.70;99.90;;;;;;5051723;28;20673;-61